createdAt,value
2019-04-03T00:00:38.308Z,97204.42
2019-04-03T00:03:11.388Z,97203.05
2019-04-03T00:05:44.872Z,97204.33
2019-04-03T00:08:18.374Z,97200.77
2019-04-03T00:10:50.223Z,97205.66
2019-04-03T00:13:23.137Z,97206.77
2019-04-03T00:15:57.485Z,97210.03
2019-04-03T00:18:30.802Z,97206.47
2019-04-03T00:21:03.462Z,97207.80
2019-04-03T00:23:37.217Z,97204.83
2019-04-03T00:26:11.185Z,97207.77
2019-04-03T00:28:44.781Z,97199.38
2019-04-03T00:31:18.754Z,97210.50
2019-04-03T00:33:53.438Z,97204.44
2019-04-03T00:36:26.966Z,97199.53
2019-04-03T00:38:59.921Z,97198.02
2019-04-03T00:41:33.599Z,97190.45
2019-04-03T00:44:06.597Z,97187.98
2019-04-03T00:46:40.015Z,97180.60
2019-04-03T00:49:13.457Z,97177.55
2019-04-03T00:51:44.927Z,97173.47
2019-04-03T00:54:17.647Z,97166.77
2019-04-03T00:56:50.159Z,97166.46
2019-04-03T00:59:23.309Z,97170.12
2019-04-03T01:01:56.572Z,97166.33
2019-04-03T01:04:29.901Z,97171.03
2019-04-03T01:07:02.384Z,97168.31
2019-04-03T01:09:35.618Z,97173.50
2019-04-03T01:12:07.934Z,97172.94
2019-04-03T01:14:41.028Z,97171.81
2019-04-03T01:17:14.619Z,97177.98
2019-04-03T01:19:47.664Z,97181.00
2019-04-03T01:22:21.073Z,97185.95
2019-04-03T01:24:54.307Z,97190.27
2019-04-03T01:27:28.369Z,97187.14
2019-04-03T01:30:01.722Z,97179.72
2019-04-03T01:32:33.149Z,97182.68
2019-04-03T01:35:06.004Z,97178.75
2019-04-03T01:37:37.770Z,97175.76
2019-04-03T01:40:10.639Z,97167.17
2019-04-03T01:42:42.042Z,97164.55
2019-04-03T01:45:14.968Z,97161.25
2019-04-03T01:47:47.004Z,97163.60
2019-04-03T01:50:19.976Z,97150.87
2019-04-03T01:52:53.019Z,97150.05
2019-04-03T01:55:26.431Z,97151.40
2019-04-03T01:58:00.586Z,97148.56
2019-04-03T02:00:37.244Z,97152.02
2019-04-03T02:03:10.932Z,97149.72
2019-04-03T02:05:45.211Z,97144.76
2019-04-03T02:08:18.601Z,97141.50
2019-04-03T02:10:51.034Z,97135.84
2019-04-03T02:13:23.753Z,97141.14
2019-04-03T02:15:56.542Z,97142.64
2019-04-03T02:18:29.708Z,97143.79
2019-04-03T02:21:03.012Z,97146.62
2019-04-03T02:23:36.884Z,97141.31
2019-04-03T02:26:10.881Z,97143.48
2019-04-03T02:28:44.967Z,97136.20
2019-04-03T02:31:20.029Z,97133.88
2019-04-03T02:33:54.279Z,97136.48
2019-04-03T02:36:27.359Z,97136.50
2019-04-03T02:39:00.654Z,97138.50
2019-04-03T02:41:36.453Z,97126.29
2019-04-03T02:44:09.571Z,97133.38
2019-04-03T02:46:42.873Z,97135.88
2019-04-03T02:49:16.462Z,97128.59
2019-04-03T02:51:51.873Z,97128.42
2019-04-03T02:54:34.784Z,97126.10
2019-04-03T02:57:06.191Z,97125.09
2019-04-03T02:59:39.932Z,97125.94
2019-04-03T03:02:13.720Z,97126.10
2019-04-03T03:04:47.200Z,97127.89
2019-04-03T03:07:19.105Z,97126.93
2019-04-03T03:09:52.817Z,97119.64
2019-04-03T03:12:27.633Z,97126.77
2019-04-03T03:15:02.696Z,97130.56
2019-04-03T03:17:37.114Z,97128.44
2019-04-03T03:20:11.176Z,97122.62
2019-04-03T03:22:49.645Z,97129.42
2019-04-03T03:25:21.996Z,97120.16
2019-04-03T03:27:58.494Z,97119.67
2019-04-03T03:30:44.377Z,97127.26
2019-04-03T03:33:28.289Z,97116.67
2019-04-03T03:35:46.844Z,97119.67
2019-04-03T03:38:19.576Z,97123.16
2019-04-03T03:40:54.065Z,97123.64
2019-04-03T03:43:28.808Z,97119.34
2019-04-03T03:46:04.292Z,97119.02
2019-04-03T03:48:42.067Z,97114.08
2019-04-03T03:51:14.922Z,97110.08
2019-04-03T03:53:51.346Z,97110.77
2019-04-03T03:56:25.291Z,97114.38
2019-04-03T03:59:00.117Z,97108.42
2019-04-03T04:01:34.338Z,97106.78
2019-04-03T04:04:07.864Z,97103.97
2019-04-03T04:06:39.470Z,97101.17
2019-04-03T04:09:16.010Z,97090.27
2019-04-03T04:11:49.743Z,97090.57
2019-04-03T04:14:23.657Z,97083.95
2019-04-03T04:17:01.593Z,97087.23
2019-04-03T04:19:36.714Z,97084.44
2019-04-03T04:22:10.034Z,97079.00
2019-04-03T04:24:43.283Z,97074.70
2019-04-03T04:27:14.877Z,97077.50
2019-04-03T04:29:48.948Z,97080.83
2019-04-03T04:32:23.461Z,97076.02
2019-04-03T04:34:56.956Z,97079.31
2019-04-03T04:37:28.687Z,97081.45
2019-04-03T04:40:01.302Z,97081.63
2019-04-03T04:42:35.395Z,97072.34
2019-04-03T04:45:11.859Z,97082.13
2019-04-03T04:47:46.545Z,97076.02
2019-04-03T04:50:26.980Z,97080.16
2019-04-03T04:53:00.975Z,97085.27
2019-04-03T04:55:35.679Z,97085.45
2019-04-03T04:58:09.893Z,97085.27
2019-04-03T05:00:47.032Z,97088.26
2019-04-03T05:03:21.685Z,97092.25
2019-04-03T05:05:57.269Z,97094.19
2019-04-03T05:08:30.837Z,97090.91
2019-04-03T05:11:07.556Z,97099.02
2019-04-03T05:13:41.716Z,97094.52
2019-04-03T05:16:13.455Z,97099.48
2019-04-03T05:18:46.162Z,97100.66
2019-04-03T05:21:21.411Z,97103.77
2019-04-03T05:23:56.103Z,97106.92
2019-04-03T05:26:31.931Z,97103.75
2019-04-03T05:29:05.035Z,97108.23
2019-04-03T05:31:39.062Z,97107.05
2019-04-03T05:34:13.300Z,97112.02
2019-04-03T05:36:48.552Z,97107.01
2019-04-03T05:39:24.157Z,97102.23
2019-04-03T05:41:59.585Z,97107.33
2019-04-03T05:44:33.816Z,97104.00
2019-04-03T05:47:08.465Z,97113.39
2019-04-03T05:49:42.106Z,97111.61
2019-04-03T05:52:15.555Z,97117.34
2019-04-03T05:54:46.701Z,97114.87
2019-04-03T05:57:19.388Z,97123.10
2019-04-03T05:59:59.463Z,97132.00
2019-04-03T06:02:28.733Z,97131.17
2019-04-03T06:05:02.328Z,97127.17
2019-04-03T06:07:37.781Z,97116.68
2019-04-03T06:10:11.589Z,97114.84
2019-04-03T06:12:46.055Z,97120.25
2019-04-03T06:15:21.707Z,97121.89
2019-04-03T06:17:55.825Z,97106.44
2019-04-03T06:20:30.683Z,97106.08
2019-04-03T06:23:10.218Z,97104.19
2019-04-03T06:25:44.813Z,97100.92
2019-04-03T06:28:17.557Z,97104.50
2019-04-03T06:30:51.292Z,97101.80
2019-04-03T06:33:24.917Z,97108.92
2019-04-03T06:35:58.590Z,97108.88
2019-04-03T06:38:31.598Z,97109.84
2019-04-03T06:41:08.362Z,97108.23
2019-04-03T06:43:41.684Z,97100.17
2019-04-03T06:46:15.848Z,97102.48
2019-04-03T06:48:48.620Z,97104.58
2019-04-03T06:51:22.397Z,97100.65
2019-04-03T06:53:58.687Z,97096.34
2019-04-03T06:56:31.036Z,97093.62
2019-04-03T06:59:02.489Z,97095.02
2019-04-03T07:01:38.740Z,97090.97
2019-04-03T07:04:12.467Z,97095.11
2019-04-03T07:06:49.844Z,97090.20
2019-04-03T07:09:33.800Z,97093.56
2019-04-03T07:11:59.095Z,97087.65
2019-04-03T07:14:32.815Z,97083.95
2019-04-03T07:17:06.072Z,97083.30
2019-04-03T07:19:40.290Z,97081.77
2019-04-03T07:22:14.562Z,97087.18
2019-04-03T07:24:48.585Z,97084.52
2019-04-03T07:27:22.392Z,97097.45
2019-04-03T07:29:56.375Z,97092.51
2019-04-03T07:32:29.653Z,97085.92
2019-04-03T07:35:05.192Z,97085.20
2019-04-03T07:37:38.920Z,97078.33
2019-04-03T07:40:12.554Z,97079.30
2019-04-03T07:42:45.920Z,97082.49
2019-04-03T07:45:21.388Z,97084.55
2019-04-03T07:47:55.684Z,97074.02
2019-04-03T07:50:27.855Z,97071.20
2019-04-03T07:53:00.801Z,97078.11
2019-04-03T07:55:37.083Z,97071.22
2019-04-03T07:58:11.852Z,97071.22
2019-04-03T08:00:45.744Z,97066.46
2019-04-03T08:03:20.705Z,97062.27
2019-04-03T08:05:56.714Z,97058.14
2019-04-03T08:08:34.336Z,97053.09
2019-04-03T08:11:10.374Z,97047.45
2019-04-03T08:13:44.344Z,97046.13
2019-04-03T08:16:18.051Z,97046.53
2019-04-03T08:18:52.511Z,97045.20
2019-04-03T08:21:25.207Z,97045.88
2019-04-03T08:23:58.668Z,97054.58
2019-04-03T08:26:32.854Z,97050.97
2019-04-03T08:29:05.824Z,97043.98
2019-04-03T08:31:44.310Z,97044.16
2019-04-03T08:34:18.872Z,97046.70
2019-04-03T08:36:53.203Z,97044.84
2019-04-03T08:39:26.392Z,97037.74
2019-04-03T08:41:59.269Z,97035.67
2019-04-03T08:44:33.865Z,97028.07
2019-04-03T08:47:10.229Z,97024.06
2019-04-03T08:49:44.308Z,97028.32
2019-04-03T08:52:19.318Z,97027.80
2019-04-03T08:54:52.639Z,97024.39
2019-04-03T08:57:30.657Z,97019.10
2019-04-03T09:00:06.093Z,97021.42
2019-04-03T09:02:42.483Z,97022.41
2019-04-03T09:05:18.963Z,97019.79
2019-04-03T09:07:50.817Z,97019.11
2019-04-03T09:10:21.847Z,97015.88
2019-04-03T09:12:56.744Z,97016.00
2019-04-03T09:15:30.961Z,97013.70
2019-04-03T09:18:06.442Z,97009.13
2019-04-03T09:20:39.010Z,97008.30
2019-04-03T09:23:14.825Z,97004.58
2019-04-03T09:25:48.180Z,96993.04
2019-04-03T09:28:21.139Z,96991.97
2019-04-03T09:30:54.117Z,96985.73
2019-04-03T09:33:29.762Z,96989.05
2019-04-03T09:36:04.533Z,96984.28
2019-04-03T09:38:40.453Z,96975.24
2019-04-03T09:41:15.331Z,96979.89
2019-04-03T09:43:49.391Z,96973.38
2019-04-03T09:46:23.111Z,96962.97
2019-04-03T09:48:56.926Z,96960.51
2019-04-03T09:51:33.003Z,96960.83
2019-04-03T09:54:07.086Z,96960.16
2019-04-03T09:56:57.197Z,96950.36
2019-04-03T09:59:16.338Z,96954.44
2019-04-03T10:01:49.554Z,96939.73
2019-04-03T10:04:24.139Z,96942.50
2019-04-03T10:07:02.022Z,96937.62
2019-04-03T10:09:38.512Z,96935.67
2019-04-03T10:12:11.356Z,96934.88
2019-04-03T10:14:44.468Z,96928.99
2019-04-03T10:17:17.845Z,96926.09
2019-04-03T10:19:51.216Z,96923.13
2019-04-03T10:22:26.334Z,96919.95
2019-04-03T10:25:00.606Z,96921.11
2019-04-03T10:27:34.674Z,96917.09
2019-04-03T10:30:12.145Z,96907.51
2019-04-03T10:32:47.933Z,96906.84
2019-04-03T10:35:21.761Z,96903.16
2019-04-03T10:37:57.787Z,96903.00
2019-04-03T10:40:33.868Z,96893.69
2019-04-03T10:43:06.784Z,96896.42
2019-04-03T10:45:39.665Z,96888.92
2019-04-03T10:48:14.446Z,96883.05
2019-04-03T10:50:47.667Z,96887.16
2019-04-03T10:53:24.608Z,96885.75
2019-04-03T10:56:00.167Z,96879.05
2019-04-03T10:58:34.841Z,96872.38
2019-04-03T11:01:10.110Z,96869.45
2019-04-03T11:03:42.923Z,96864.14
2019-04-03T11:06:17.293Z,96863.91
2019-04-03T11:08:53.268Z,96862.16
2019-04-03T11:11:29.672Z,96857.69
2019-04-03T11:14:06.626Z,96850.80
2019-04-03T11:16:39.548Z,96848.44
2019-04-03T11:19:14.894Z,96849.25
2019-04-03T11:21:49.267Z,96838.23
2019-04-03T11:24:23.405Z,96833.95
2019-04-03T11:26:57.014Z,96839.11
2019-04-03T11:29:30.635Z,96828.84
2019-04-03T11:32:04.911Z,96832.58
2019-04-03T11:34:38.025Z,96824.56
2019-04-03T11:37:11.771Z,96829.33
2019-04-03T11:39:46.246Z,96818.19
2019-04-03T11:42:24.893Z,96814.73
2019-04-03T11:44:55.152Z,96811.78
2019-04-03T11:47:28.882Z,96802.82
2019-04-03T11:50:01.418Z,96797.65
2019-04-03T11:52:34.674Z,96804.69
2019-04-03T11:55:11.195Z,96798.19
2019-04-03T11:57:48.616Z,96793.55
2019-04-03T12:00:26.796Z,96790.88
2019-04-03T12:03:01.507Z,96782.22
2019-04-03T12:05:35.220Z,96780.30
2019-04-03T12:08:08.535Z,96779.18
2019-04-03T12:10:46.046Z,96772.20
2019-04-03T12:13:21.047Z,96772.34
2019-04-03T12:15:57.510Z,96760.88
2019-04-03T12:18:34.139Z,96757.60
2019-04-03T12:21:07.435Z,96751.83
2019-04-03T12:23:41.469Z,96753.19
2019-04-03T12:26:16.910Z,96741.95
2019-04-03T12:28:50.903Z,96737.02
2019-04-03T12:31:24.782Z,96735.96
2019-04-03T12:34:04.553Z,96727.97
2019-04-03T12:36:33.661Z,96719.58
2019-04-03T12:39:16.045Z,96717.30
2019-04-03T12:41:49.358Z,96707.28
2019-04-03T12:44:23.616Z,96712.77
2019-04-03T12:46:57.348Z,96702.52
2019-04-03T12:49:30.185Z,96703.74
2019-04-03T12:52:04.541Z,96703.19
2019-04-03T12:54:38.738Z,96695.16
2019-04-03T12:57:12.364Z,96696.38
2019-04-03T12:59:47.629Z,96694.84
2019-04-03T13:02:21.594Z,96693.35
2019-04-03T13:04:54.991Z,96685.81
2019-04-03T13:07:30.595Z,96679.14
2019-04-03T13:10:04.632Z,96678.98
2019-04-03T13:12:41.617Z,96663.71
2019-04-03T13:15:15.879Z,96669.99
2019-04-03T13:17:49.098Z,96659.62
2019-04-03T13:20:23.417Z,96652.28
2019-04-03T13:23:03.008Z,96651.31
2019-04-03T13:25:36.867Z,96644.13
2019-04-03T13:28:12.155Z,96635.39
2019-04-03T13:30:47.458Z,96633.09
2019-04-03T13:33:21.140Z,96634.45
2019-04-03T13:35:54.388Z,96621.52
2019-04-03T13:38:28.929Z,96627.23
2019-04-03T13:41:05.194Z,96623.87
2019-04-03T13:43:37.917Z,96611.81
2019-04-03T13:46:11.239Z,96605.92
2019-04-03T13:48:45.239Z,96608.82
2019-04-03T13:51:20.011Z,96593.90
2019-04-03T13:53:53.888Z,96595.73
2019-04-03T13:56:27.667Z,96589.07
2019-04-03T13:59:02.669Z,96574.61
2019-04-03T14:01:40.255Z,96580.31
2019-04-03T14:04:15.901Z,96561.14
2019-04-03T14:06:49.441Z,96567.92
2019-04-03T14:09:23.229Z,96557.82
2019-04-03T14:11:55.947Z,96553.81
2019-04-03T14:14:30.904Z,96546.88
2019-04-03T14:17:06.965Z,96547.16
2019-04-03T14:19:46.106Z,96544.61
2019-04-03T14:22:17.007Z,96540.77
2019-04-03T14:24:52.588Z,96532.03
2019-04-03T14:27:30.701Z,96521.46
2019-04-03T14:30:10.262Z,96515.79
2019-04-03T14:32:38.023Z,96505.44
2019-04-03T14:35:41.220Z,96505.59
2019-04-03T14:37:47.681Z,96485.48
2019-04-03T14:40:23.005Z,96486.08
2019-04-03T14:43:00.031Z,96476.65
2019-04-03T14:45:33.255Z,96473.88
2019-04-03T14:48:07.254Z,96465.58
2019-04-03T14:50:41.132Z,96465.22
2019-04-03T14:53:14.125Z,96458.83
2019-04-03T14:55:49.869Z,96452.13
2019-04-03T14:58:25.806Z,96445.12
2019-04-03T15:00:56.858Z,96441.05
2019-04-03T15:03:30.274Z,96431.65
2019-04-03T15:06:06.096Z,96435.88
2019-04-03T15:08:39.144Z,96441.64
2019-04-03T15:11:12.473Z,96433.58
2019-04-03T15:13:45.604Z,96443.28
2019-04-03T15:16:19.789Z,96432.61
2019-04-03T15:18:53.531Z,96422.47
2019-04-03T15:21:28.342Z,96419.78
2019-04-03T15:24:02.125Z,96420.03
2019-04-03T15:26:35.127Z,96413.50
2019-04-03T15:29:08.461Z,96411.91
2019-04-03T15:31:43.190Z,96407.02
2019-04-03T15:34:18.473Z,96402.95
2019-04-03T15:36:52.886Z,96397.16
2019-04-03T15:39:26.215Z,96393.65
2019-04-03T15:42:00.967Z,96394.05
2019-04-03T15:44:38.614Z,96394.63
2019-04-03T15:47:12.348Z,96376.94
2019-04-03T15:49:46.705Z,96383.16
2019-04-03T15:52:21.647Z,96386.42
2019-04-03T15:54:58.452Z,96381.80
2019-04-03T15:57:32.098Z,96375.78
2019-04-03T16:00:05.790Z,96373.94
2019-04-03T16:02:39.239Z,96368.94
2019-04-03T16:05:13.395Z,96357.68
2019-04-03T16:07:48.287Z,96358.11
2019-04-03T16:10:23.996Z,96350.08
2019-04-03T16:12:57.763Z,96347.93
2019-04-03T16:15:31.306Z,96335.25
2019-04-03T16:18:06.302Z,96335.34
2019-04-03T16:20:39.701Z,96330.09
2019-04-03T16:23:12.845Z,96326.67
2019-04-03T16:25:49.816Z,96321.18
2019-04-03T16:28:23.531Z,96327.48
2019-04-03T16:30:56.012Z,96319.57
2019-04-03T16:33:30.453Z,96320.11
2019-04-03T16:36:03.251Z,96313.37
2019-04-03T16:38:37.105Z,96305.00
2019-04-03T16:41:13.856Z,96308.03
2019-04-03T16:43:47.406Z,96299.94
2019-04-03T16:46:22.804Z,96293.34
2019-04-03T16:48:57.830Z,96286.42
2019-04-03T16:51:33.359Z,96286.81
2019-04-03T16:54:10.400Z,96283.32
2019-04-03T16:56:46.982Z,96273.85
2019-04-03T16:59:22.069Z,96271.44
2019-04-03T17:01:55.629Z,96267.17
2019-04-03T17:04:33.042Z,96264.79
2019-04-03T17:07:38.442Z,96261.24
2019-04-03T17:10:12.987Z,96257.66
2019-04-03T17:12:49.573Z,96261.78
2019-04-03T17:15:22.756Z,96252.22
2019-04-03T17:17:58.646Z,96245.31
2019-04-03T17:20:33.320Z,96257.09
2019-04-03T17:23:07.807Z,96247.70
2019-04-03T17:25:47.579Z,96250.87
2019-04-03T17:28:19.959Z,96255.91
2019-04-03T17:30:53.523Z,96250.64
2019-04-03T17:33:29.081Z,96260.50
2019-04-03T17:36:04.086Z,96260.63
2019-04-03T17:38:38.974Z,96267.32
2019-04-03T17:41:13.600Z,96264.17
2019-04-03T17:43:48.666Z,96270.01
2019-04-03T17:46:22.533Z,96270.56
2019-04-03T17:48:57.266Z,96271.23
2019-04-03T17:51:33.703Z,96266.81
2019-04-03T17:54:09.129Z,96263.12
2019-04-03T17:56:43.582Z,96263.06
2019-04-03T17:59:18.179Z,96268.30
2019-04-03T18:01:54.213Z,96268.38
2019-04-03T18:04:30.765Z,96275.73
2019-04-03T18:07:03.861Z,96277.25
2019-04-03T18:09:37.461Z,96286.58
2019-04-03T18:12:12.823Z,96298.59
2019-04-03T18:14:47.183Z,96301.91
2019-04-03T18:17:21.136Z,96308.36
2019-04-03T18:19:56.150Z,96316.06
2019-04-03T18:22:29.908Z,96329.91
2019-04-03T18:25:03.874Z,96367.46
2019-04-03T18:27:38.122Z,96424.21
2019-04-03T18:30:12.908Z,96471.09
2019-04-03T18:32:47.589Z,96479.20
2019-04-03T18:35:20.467Z,96473.51
2019-04-03T18:37:54.023Z,96477.66
2019-04-03T18:40:26.993Z,96473.70
2019-04-03T18:43:01.880Z,96482.85
2019-04-03T18:45:35.970Z,96495.61
2019-04-03T18:48:09.843Z,96504.35
2019-04-03T18:50:42.558Z,96532.67
2019-04-03T18:53:16.711Z,96510.59
2019-04-03T18:55:53.003Z,96541.14
2019-04-03T18:58:30.162Z,96527.80
2019-04-03T19:01:06.963Z,96517.98
2019-04-03T19:03:40.641Z,96499.42
2019-04-03T19:06:14.525Z,96519.16
2019-04-03T19:08:50.016Z,96536.06
2019-04-03T19:11:22.684Z,96543.50
2019-04-03T19:13:58.787Z,96540.50
2019-04-03T19:16:43.630Z,96530.58
2019-04-03T19:19:08.497Z,96531.44
2019-04-03T19:21:42.269Z,96547.58
2019-04-03T19:24:15.848Z,96554.67
2019-04-03T19:26:51.160Z,96554.55
2019-04-03T19:29:29.499Z,96573.67
2019-04-03T19:32:06.339Z,96589.65
2019-04-03T19:34:39.378Z,96596.66
2019-04-03T19:37:13.649Z,96597.33
2019-04-03T19:39:50.570Z,96591.33
2019-04-03T19:42:24.179Z,96600.56
2019-04-03T19:44:57.974Z,96605.66
2019-04-03T19:47:33.169Z,96624.26
2019-04-03T19:50:09.195Z,96639.05
2019-04-03T19:52:42.889Z,96633.34
2019-04-03T19:55:19.324Z,96627.73
2019-04-03T19:57:57.473Z,96631.02
2019-04-03T20:00:33.074Z,96634.26
2019-04-03T20:03:08.571Z,96644.70
2019-04-03T20:05:44.061Z,96664.89
2019-04-03T20:08:18.460Z,96677.04
2019-04-03T20:10:52.387Z,96688.56
2019-04-03T20:13:30.217Z,96683.73
2019-04-03T20:16:04.726Z,96668.94
2019-04-03T20:18:40.298Z,96674.64
2019-04-03T20:21:15.768Z,96679.88
2019-04-03T20:24:03.112Z,96680.25
2019-04-03T20:26:46.638Z,96682.17
2019-04-03T20:29:21.777Z,96685.73
2019-04-03T20:31:55.423Z,96687.88
2019-04-03T20:34:33.132Z,96678.61
2019-04-03T20:37:06.869Z,96684.36
2019-04-03T20:39:41.035Z,96703.56
2019-04-03T20:42:14.718Z,96701.28
2019-04-03T20:44:52.285Z,96708.83
2019-04-03T20:47:27.463Z,96709.84
2019-04-03T20:50:01.476Z,96716.77
2019-04-03T20:52:38.047Z,96725.28
2019-04-03T20:55:13.443Z,96709.66
2019-04-03T20:57:55.504Z,96704.12
2019-04-03T21:00:23.937Z,96707.33
2019-04-03T21:02:57.290Z,96709.78
2019-04-03T21:05:30.522Z,96713.34
2019-04-03T21:08:04.738Z,96700.81
2019-04-03T21:10:40.098Z,96699.50
2019-04-03T21:13:15.394Z,96707.67
2019-04-03T21:15:52.394Z,96730.06
2019-04-03T21:18:26.796Z,96725.36
2019-04-03T21:21:03.909Z,96721.70
2019-04-03T21:23:37.037Z,96720.05
2019-04-03T21:26:11.742Z,96732.41
2019-04-03T21:28:45.431Z,96736.66
2019-04-03T21:31:22.098Z,96736.66
2019-04-03T21:33:55.436Z,96737.65
2019-04-03T21:36:29.644Z,96740.06
2019-04-03T21:39:08.197Z,96743.56
2019-04-03T21:41:44.123Z,96739.23
2019-04-03T21:44:19.935Z,96741.89
2019-04-03T21:46:55.536Z,96735.92
2019-04-03T21:49:30.570Z,96735.88
2019-04-03T21:52:04.182Z,96736.65
2019-04-03T21:54:38.992Z,96747.55
2019-04-03T21:57:12.395Z,96753.64
2019-04-03T21:59:47.367Z,96751.03
2019-04-03T22:02:21.232Z,96747.04
2019-04-03T22:04:54.739Z,96740.75
2019-04-03T22:07:28.211Z,96734.37
2019-04-03T22:10:02.645Z,96740.13
2019-04-03T22:12:36.696Z,96740.99
2019-04-03T22:15:13.553Z,96750.19
2019-04-03T22:17:47.416Z,96754.50
2019-04-03T22:20:21.178Z,96751.69
2019-04-03T22:22:54.854Z,96750.39
2019-04-03T22:25:28.138Z,96745.86
2019-04-03T22:28:00.501Z,96742.75
2019-04-03T22:30:33.553Z,96741.11
2019-04-03T22:33:06.871Z,96742.47
2019-04-03T22:35:42.479Z,96750.33
2019-04-03T22:38:15.745Z,96745.70
2019-04-03T22:40:48.781Z,96750.30
2019-04-03T22:43:25.296Z,96747.17
2019-04-03T22:45:58.704Z,96746.68
2019-04-03T22:48:33.454Z,96742.02
2019-04-03T22:51:09.978Z,96740.53
2019-04-03T22:53:42.704Z,96750.16
2019-04-03T22:56:16.942Z,96741.40
2019-04-03T22:58:52.965Z,96738.42
2019-04-03T23:01:29.568Z,96748.02
2019-04-03T23:04:04.965Z,96745.36
2019-04-03T23:06:39.363Z,96748.48
2019-04-03T23:09:14.391Z,96741.72
2019-04-03T23:11:50.528Z,96745.23
2019-04-03T23:14:26.009Z,96743.94
2019-04-03T23:17:00.330Z,96744.69
2019-04-03T23:19:34.283Z,96749.02
2019-04-03T23:22:07.777Z,96740.45
2019-04-03T23:24:42.542Z,96745.08
2019-04-03T23:27:15.615Z,96734.70
2019-04-03T23:29:48.852Z,96725.77
2019-04-03T23:32:21.733Z,96729.67
2019-04-03T23:34:54.942Z,96728.58
2019-04-03T23:37:30.588Z,96714.52
2019-04-03T23:40:04.114Z,96718.07
2019-04-03T23:42:39.568Z,96730.22
2019-04-03T23:45:13.515Z,96726.97
2019-04-03T23:47:48.238Z,96728.42
2019-04-03T23:50:21.909Z,96728.89
2019-04-03T23:52:56.293Z,96729.11
2019-04-03T23:55:29.960Z,96724.95
2019-04-03T23:58:02.721Z,96709.27
